sensor_id;sensor_type;location;lat;lon;timestamp;pressure;altitude;pressure_sealevel;temperature;humidity
13709;BME280;54933;51.908;7.730;2022-09-24T00:01:53;100673.88;;;22.63;76.73
13709;BME280;54933;51.908;7.730;2022-09-24T00:04:18;100676.59;;;22.63;76.62
13709;BME280;54933;51.908;7.730;2022-09-24T00:06:46;100675.56;;;22.64;77.13
13709;BME280;54933;51.908;7.730;2022-09-24T00:09:13;100672.84;;;22.64;77.06
13709;BME280;54933;51.908;7.730;2022-09-24T00:11:39;100678.50;;;22.62;76.94
13709;BME280;54933;51.908;7.730;2022-09-24T00:14:05;100680.16;;;22.63;76.83
13709;BME280;54933;51.908;7.730;2022-09-24T00:16:31;100677.44;;;22.63;76.80
13709;BME280;54933;51.908;7.730;2022-09-24T00:18:59;100670.38;;;22.62;77.13
13709;BME280;54933;51.908;7.730;2022-09-24T00:21:28;100674.72;;;22.63;77.07
13709;BME280;54933;51.908;7.730;2022-09-24T00:23:57;100673.88;;;22.63;76.94
13709;BME280;54933;51.908;7.730;2022-09-24T00:26:23;100673.88;;;22.63;76.88
13709;BME280;54933;51.908;7.730;2022-09-24T00:29:10;100674.97;;;22.62;76.93
13709;BME280;54933;51.908;7.730;2022-09-24T00:31:36;100672.25;;;22.62;76.98
13709;BME280;54933;51.908;7.730;2022-09-24T00:34:02;100676.59;;;22.63;77.05
13709;BME280;54933;51.908;7.730;2022-09-24T00:36:27;100684.72;;;22.63;77.07
13709;BME280;54933;51.908;7.730;2022-09-24T00:38:55;100677.66;;;22.62;76.77
13709;BME280;54933;51.908;7.730;2022-09-24T00:41:24;100672.25;;;22.62;76.76
13709;BME280;54933;51.908;7.730;2022-09-24T00:43:50;100676.59;;;22.63;76.95
13709;BME280;54933;51.908;7.730;2022-09-24T00:48:54;100661.41;;;22.62;77.18
13709;BME280;54933;51.908;7.730;2022-09-24T00:51:24;100659.53;;;22.62;76.99
13709;BME280;54933;51.908;7.730;2022-09-24T00:53:54;100658.72;;;22.62;76.90
13709;BME280;54933;51.908;7.730;2022-09-24T00:56:21;100661.41;;;22.62;77.11
13709;BME280;54933;51.908;7.730;2022-09-24T00:58:52;100661.41;;;22.62;77.08
13709;BME280;54933;51.908;7.730;2022-09-24T01:01:21;100661.41;;;22.62;77.12
13709;BME280;54933;51.908;7.730;2022-09-24T01:03:49;100665.19;;;22.61;77.07
13709;BME280;54933;51.908;7.730;2022-09-24T01:06:14;100666.00;;;22.61;77.00
13709;BME280;54933;51.908;7.730;2022-09-24T01:08:39;100670.59;;;22.61;76.87
13709;BME280;54933;51.908;7.730;2022-09-24T01:16:52;100665.19;;;22.61;77.22
13709;BME280;54933;51.908;7.730;2022-09-24T01:19:35;100660.59;;;22.61;76.88
13709;BME280;54933;51.908;7.730;2022-09-24T01:28:04;100648.94;;;22.61;76.81
13709;BME280;54933;51.908;7.730;2022-09-24T01:30:34;100652.69;;;22.60;77.05
13709;BME280;54933;51.908;7.730;2022-09-24T01:33:03;100647.28;;;22.60;77.25
13709;BME280;54933;51.908;7.730;2022-09-24T01:36:02;100652.69;;;22.60;77.25
13709;BME280;54933;51.908;7.730;2022-09-24T01:38:35;100652.69;;;22.60;77.13
13709;BME280;54933;51.908;7.730;2022-09-24T01:41:03;100659.78;;;22.61;76.84
13709;BME280;54933;51.908;7.730;2022-09-24T01:43:31;100656.22;;;22.60;77.26
13709;BME280;54933;51.908;7.730;2022-09-24T01:45:59;100650.81;;;22.60;77.01
13709;BME280;54933;51.908;7.730;2022-09-24T01:48:27;100654.34;;;22.61;77.11
13709;BME280;54933;51.908;7.730;2022-09-24T01:51:07;100654.34;;;22.61;77.03
13709;BME280;54933;51.908;7.730;2022-09-24T01:56:22;100643.53;;;22.61;77.03
13709;BME280;54933;51.908;7.730;2022-09-24T01:59:05;100645.41;;;22.60;77.09
13709;BME280;54933;51.908;7.730;2022-09-24T02:01:41;100637.28;;;22.60;76.89
13709;BME280;54933;51.908;7.730;2022-09-24T02:04:15;100632.69;;;22.61;77.13
13709;BME280;54933;51.908;7.730;2022-09-24T02:06:54;100637.28;;;22.60;77.00
13709;BME280;54933;51.908;7.730;2022-09-24T02:11:55;100632.69;;;22.61;77.31
13709;BME280;54933;51.908;7.730;2022-09-24T02:14:22;100626.44;;;22.60;77.07
13709;BME280;54933;51.908;7.730;2022-09-24T02:16:48;100626.44;;;22.60;77.02
13709;BME280;54933;51.908;7.730;2022-09-24T02:19:18;100614.78;;;22.60;77.35
13709;BME280;54933;51.908;7.730;2022-09-24T02:21:45;100621.03;;;22.60;77.07
13709;BME280;54933;51.908;7.730;2022-09-24T02:24:16;100614.78;;;22.60;77.32
13709;BME280;54933;51.908;7.730;2022-09-24T02:26:43;100617.47;;;22.60;77.19
13709;BME280;54933;51.908;7.730;2022-09-24T02:29:09;100620.19;;;22.60;77.12
13709;BME280;54933;51.908;7.730;2022-09-24T02:31:37;100622.91;;;22.60;77.03
13709;BME280;54933;51.908;7.730;2022-09-24T02:34:07;100614.78;;;22.60;77.19
13709;BME280;54933;51.908;7.730;2022-09-24T02:36:53;100613.72;;;22.61;76.81
13709;BME280;54933;51.908;7.730;2022-09-24T02:39:18;100620.19;;;22.60;76.96
13709;BME280;54933;51.908;7.730;2022-09-24T02:41:45;100619.16;;;22.61;77.02
13709;BME280;54933;51.908;7.730;2022-09-24T02:44:13;100614.78;;;22.60;77.04
13709;BME280;54933;51.908;7.730;2022-09-24T02:46:39;100612.06;;;22.60;77.18
13709;BME280;54933;51.908;7.730;2022-09-24T02:49:06;100615.59;;;22.60;77.12
13709;BME280;54933;51.908;7.730;2022-09-24T02:51:32;100614.78;;;22.60;77.04
13709;BME280;54933;51.908;7.730;2022-09-24T02:53:57;100612.06;;;22.60;76.97
13709;BME280;54933;51.908;7.730;2022-09-24T02:56:22;100611.03;;;22.61;77.20
13709;BME280;54933;51.908;7.730;2022-09-24T02:58:47;100614.78;;;22.60;77.21
13709;BME280;54933;51.908;7.730;2022-09-24T03:01:13;100614.78;;;22.60;77.32
13709;BME280;54933;51.908;7.730;2022-09-24T03:03:38;100608.56;;;22.59;77.23
13709;BME280;54933;51.908;7.730;2022-09-24T03:06:04;100611.25;;;22.59;77.41
13709;BME280;54933;51.908;7.730;2022-09-24T03:08:30;100613.13;;;22.59;77.45
13709;BME280;54933;51.908;7.730;2022-09-24T03:10:57;100613.13;;;22.59;77.37
13709;BME280;54933;51.908;7.730;2022-09-24T03:13:22;100607.72;;;22.59;77.10
13709;BME280;54933;51.908;7.730;2022-09-24T03:15:47;100602.31;;;22.59;77.13
13709;BME280;54933;51.908;7.730;2022-09-24T03:18:13;100602.31;;;22.59;77.26
13709;BME280;54933;51.908;7.730;2022-09-24T03:20:39;100609.34;;;22.60;77.22
13709;BME280;54933;51.908;7.730;2022-09-24T03:23:05;100603.13;;;22.59;77.01
13709;BME280;54933;51.908;7.730;2022-09-24T03:25:30;100603.38;;;22.58;76.85
13709;BME280;54933;51.908;7.730;2022-09-24T03:27:55;100604.16;;;22.58;77.22
13709;BME280;54933;51.908;7.730;2022-09-24T03:30:21;100601.47;;;22.58;77.12
13709;BME280;54933;51.908;7.730;2022-09-24T03:33:05;100605.00;;;22.59;77.33
13709;BME280;54933;51.908;7.730;2022-09-24T03:35:30;100606.88;;;22.58;77.35
13709;BME280;54933;51.908;7.730;2022-09-24T03:37:55;100600.66;;;22.58;77.34
13709;BME280;54933;51.908;7.730;2022-09-24T03:40:20;100599.81;;;22.57;77.15
13709;BME280;54933;51.908;7.730;2022-09-24T03:42:46;100603.38;;;22.58;77.08
13709;BME280;54933;51.908;7.730;2022-09-24T03:45:11;100602.53;;;22.57;77.36
13709;BME280;54933;51.908;7.730;2022-09-24T03:47:37;100593.56;;;22.57;77.18
13709;BME280;54933;51.908;7.730;2022-09-24T03:50:03;100600.66;;;22.58;77.23
13709;BME280;54933;51.908;7.730;2022-09-24T03:52:28;100599.81;;;22.57;77.34
13709;BME280;54933;51.908;7.730;2022-09-24T03:54:54;100592.53;;;22.58;76.92
13709;BME280;54933;51.908;7.730;2022-09-24T03:57:19;100592.53;;;22.58;77.46
13709;BME280;54933;51.908;7.730;2022-09-24T03:59:45;100597.94;;;22.58;77.36
13709;BME280;54933;51.908;7.730;2022-09-24T04:02:11;100598.75;;;22.58;77.46
13709;BME280;54933;51.908;7.730;2022-09-24T04:04:37;100592.53;;;22.58;77.27
13709;BME280;54933;51.908;7.730;2022-09-24T04:07:03;100582.75;;;22.57;76.96
13709;BME280;54933;51.908;7.730;2022-09-24T04:09:28;100593.56;;;22.57;77.09
13709;BME280;54933;51.908;7.730;2022-09-24T04:11:54;100589.00;;;22.57;77.05
13709;BME280;54933;51.908;7.730;2022-09-24T04:14:20;100578.16;;;22.57;77.13
13709;BME280;54933;51.908;7.730;2022-09-24T04:16:45;100589.81;;;22.58;77.45
13709;BME280;54933;51.908;7.730;2022-09-24T04:19:14;100589.81;;;22.58;77.22
13709;BME280;54933;51.908;7.730;2022-09-24T04:21:43;100583.56;;;22.57;77.17
13709;BME280;54933;51.908;7.730;2022-09-24T04:24:08;100579.78;;;22.58;77.34
13709;BME280;54933;51.908;7.730;2022-09-24T04:26:34;100586.28;;;22.57;77.17
13709;BME280;54933;51.908;7.730;2022-09-24T04:28:59;100583.56;;;22.57;77.37
13709;BME280;54933;51.908;7.730;2022-09-24T04:31:24;100571.91;;;22.57;77.26
13709;BME280;54933;51.908;7.730;2022-09-24T04:33:51;100571.91;;;22.57;77.37
13709;BME280;54933;51.908;7.730;2022-09-24T04:36:17;100573.56;;;22.58;77.41
13709;BME280;54933;51.908;7.730;2022-09-24T04:38:42;100565.66;;;22.56;77.36
13709;BME280;54933;51.908;7.730;2022-09-24T04:41:11;100567.31;;;22.57;77.44
13709;BME280;54933;51.908;7.730;2022-09-24T04:43:37;100567.31;;;22.57;77.41
13709;BME280;54933;51.908;7.730;2022-09-24T04:46:02;100566.50;;;22.57;77.63
13709;BME280;54933;51.908;7.730;2022-09-24T04:48:28;100566.50;;;22.57;77.25
13709;BME280;54933;51.908;7.730;2022-09-24T04:50:54;100567.31;;;22.57;77.31
13709;BME280;54933;51.908;7.730;2022-09-24T04:53:20;100569.19;;;22.57;77.49
13709;BME280;54933;51.908;7.730;2022-09-24T04:55:47;100566.50;;;22.57;77.27
13709;BME280;54933;51.908;7.730;2022-09-24T04:58:12;100567.31;;;22.57;77.84
13709;BME280;54933;51.908;7.730;2022-09-24T05:00:37;100561.91;;;22.57;77.31
13709;BME280;54933;51.908;7.730;2022-09-24T05:03:03;100573.56;;;22.58;77.20
13709;BME280;54933;51.908;7.730;2022-09-24T05:05:30;100566.50;;;22.57;77.54
13709;BME280;54933;51.908;7.730;2022-09-24T05:07:56;100564.84;;;22.56;77.39
13709;BME280;54933;51.908;7.730;2022-09-24T05:10:23;100577.31;;;22.57;77.18
13709;BME280;54933;51.908;7.730;2022-09-24T05:12:48;100573.78;;;22.56;77.58
13709;BME280;54933;51.908;7.730;2022-09-24T05:15:14;100574.63;;;22.57;77.39
13709;BME280;54933;51.908;7.730;2022-09-24T05:17:39;100571.91;;;22.57;77.18
13709;BME280;54933;51.908;7.730;2022-09-24T05:20:07;100572.13;;;22.55;77.18
13709;BME280;54933;51.908;7.730;2022-09-24T05:22:32;100570.28;;;22.56;77.28
13709;BME280;54933;51.908;7.730;2022-09-24T05:24:57;100575.69;;;22.56;77.44
13709;BME280;54933;51.908;7.730;2022-09-24T05:27:23;100575.69;;;22.56;77.37
13709;BME280;54933;51.908;7.730;2022-09-24T05:29:48;100578.41;;;22.56;77.42
13709;BME280;54933;51.908;7.730;2022-09-24T05:32:18;100570.28;;;22.56;77.46
13709;BME280;54933;51.908;7.730;2022-09-24T05:34:45;100575.69;;;22.56;77.47
13709;BME280;54933;51.908;7.730;2022-09-24T05:37:11;100575.69;;;22.56;77.76
13709;BME280;54933;51.908;7.730;2022-09-24T05:39:36;100575.69;;;22.56;77.50
13709;BME280;54933;51.908;7.730;2022-09-24T05:42:02;100581.09;;;22.56;77.58
13709;BME280;54933;51.908;7.730;2022-09-24T05:44:32;100584.84;;;22.55;77.33
13709;BME280;54933;51.908;7.730;2022-09-24T05:46:57;100586.50;;;22.56;77.53
13709;BME280;54933;51.908;7.730;2022-09-24T05:49:23;100581.09;;;22.56;77.25
13709;BME280;54933;51.908;7.730;2022-09-24T05:51:49;100584.84;;;22.55;77.29
13709;BME280;54933;51.908;7.730;2022-09-24T05:54:16;100586.50;;;22.56;77.16
13709;BME280;54933;51.908;7.730;2022-09-24T05:56:42;100574.00;;;22.55;77.42
13709;BME280;54933;51.908;7.730;2022-09-24T05:59:07;100579.44;;;22.55;77.46
13709;BME280;54933;51.908;7.730;2022-09-24T06:01:32;100584.84;;;22.55;77.25
13709;BME280;54933;51.908;7.730;2022-09-24T06:03:58;100585.69;;;22.55;77.42
13709;BME280;54933;51.908;7.730;2022-09-24T06:06:26;100589.22;;;22.56;77.49
13709;BME280;54933;51.908;7.730;2022-09-24T06:08:53;100583.22;;;22.54;77.46
13709;BME280;54933;51.908;7.730;2022-09-24T06:11:19;100589.47;;;22.54;77.64
13709;BME280;54933;51.908;7.730;2022-09-24T06:13:47;100583.22;;;22.54;77.40
13709;BME280;54933;51.908;7.730;2022-09-24T06:16:12;100583.22;;;22.54;77.52
13709;BME280;54933;51.908;7.730;2022-09-24T06:18:41;100590.25;;;22.55;77.58
13709;BME280;54933;51.908;7.730;2022-09-24T06:21:10;100590.25;;;22.55;77.39
13709;BME280;54933;51.908;7.730;2022-09-24T06:23:36;100590.25;;;22.55;77.49
13709;BME280;54933;51.908;7.730;2022-09-24T06:26:04;100592.97;;;22.55;77.79
13709;BME280;54933;51.908;7.730;2022-09-24T06:28:30;100595.69;;;22.55;77.42
13709;BME280;54933;51.908;7.730;2022-09-24T06:30:58;100595.69;;;22.55;77.63
13709;BME280;54933;51.908;7.730;2022-09-24T06:33:24;100591.34;;;22.54;77.56
13709;BME280;54933;51.908;7.730;2022-09-24T06:35:49;100591.34;;;22.54;77.54
13709;BME280;54933;51.908;7.730;2022-09-24T06:38:16;100590.25;;;22.55;77.53
13709;BME280;54933;51.908;7.730;2022-09-24T06:40:42;100595.69;;;22.55;77.74
13709;BME280;54933;51.908;7.730;2022-09-24T06:43:10;100588.63;;;22.54;77.43
13709;BME280;54933;51.908;7.730;2022-09-24T06:45:36;100595.69;;;22.55;77.36
13709;BME280;54933;51.908;7.730;2022-09-24T06:48:03;100599.47;;;22.54;77.55
13709;BME280;54933;51.908;7.730;2022-09-24T06:50:30;100596.75;;;22.54;77.52
13709;BME280;54933;51.908;7.730;2022-09-24T06:52:56;100595.69;;;22.55;77.73
13709;BME280;54933;51.908;7.730;2022-09-24T06:55:23;100602.16;;;22.54;77.56
13709;BME280;54933;51.908;7.730;2022-09-24T06:57:48;100596.75;;;22.54;77.50
13709;BME280;54933;51.908;7.730;2022-09-24T07:00:15;100592.16;;;22.54;77.58
13709;BME280;54933;51.908;7.730;2022-09-24T07:02:40;100601.09;;;22.55;77.62
13709;BME280;54933;51.908;7.730;2022-09-24T07:05:07;100599.47;;;22.54;77.71
13709;BME280;54933;51.908;7.730;2022-09-24T07:07:32;100599.47;;;22.54;77.58
13709;BME280;54933;51.908;7.730;2022-09-24T07:10:05;100594.03;;;22.54;77.65
13709;BME280;54933;51.908;7.730;2022-09-24T07:12:33;100599.47;;;22.54;77.45
13709;BME280;54933;51.908;7.730;2022-09-24T07:14:58;100592.97;;;22.55;77.68
13709;BME280;54933;51.908;7.730;2022-09-24T07:17:25;100591.34;;;22.54;77.79
13709;BME280;54933;51.908;7.730;2022-09-24T07:19:50;100599.47;;;22.54;77.52
13709;BME280;54933;51.908;7.730;2022-09-24T07:22:16;100599.47;;;22.54;77.71
13709;BME280;54933;51.908;7.730;2022-09-24T07:24:41;100595.91;;;22.53;77.75
13709;BME280;54933;51.908;7.730;2022-09-24T07:27:07;100599.47;;;22.54;77.50
13709;BME280;54933;51.908;7.730;2022-09-24T07:29:33;100604.88;;;22.54;77.75
13709;BME280;54933;51.908;7.730;2022-09-24T07:31:58;100604.88;;;22.54;77.79
13709;BME280;54933;51.908;7.730;2022-09-24T07:34:24;100603.22;;;22.53;77.47
13709;BME280;54933;51.908;7.730;2022-09-24T07:36:49;100604.88;;;22.54;77.71
13709;BME280;54933;51.908;7.730;2022-09-24T07:39:15;100604.88;;;22.54;78.20
13709;BME280;54933;51.908;7.730;2022-09-24T07:41:40;100608.66;;;22.53;77.88
13709;BME280;54933;51.908;7.730;2022-09-24T07:44:06;100614.06;;;22.53;78.05
13709;BME280;54933;51.908;7.730;2022-09-24T07:46:32;100617.56;;;22.53;77.74
13709;BME280;54933;51.908;7.730;2022-09-24T07:48:57;100621.13;;;22.54;77.83
13709;BME280;54933;51.908;7.730;2022-09-24T07:51:24;100616.78;;;22.53;77.86
13709;BME280;54933;51.908;7.730;2022-09-24T07:53:51;100613.00;;;22.54;77.57
13709;BME280;54933;51.908;7.730;2022-09-24T07:56:16;100619.47;;;22.53;77.98
13709;BME280;54933;51.908;7.730;2022-09-24T07:58:42;100624.91;;;22.53;77.82
13709;BME280;54933;51.908;7.730;2022-09-24T08:01:07;100621.56;;;22.51;78.02
13709;BME280;54933;51.908;7.730;2022-09-24T08:03:33;100623.19;;;22.52;78.00
13709;BME280;54933;51.908;7.730;2022-09-24T08:05:58;100624.91;;;22.53;77.62
13709;BME280;54933;51.908;7.730;2022-09-24T08:08:25;100624.91;;;22.53;77.85
13709;BME280;54933;51.908;7.730;2022-09-24T08:10:51;100623.19;;;22.52;77.62
13709;BME280;54933;51.908;7.730;2022-09-24T08:13:16;100624.25;;;22.51;77.76
13709;BME280;54933;51.908;7.730;2022-09-24T08:15:42;100632.38;;;22.51;77.79
13709;BME280;54933;51.908;7.730;2022-09-24T08:18:08;100627.59;;;22.53;78.17
13709;BME280;54933;51.908;7.730;2022-09-24T08:20:37;100630.31;;;22.53;77.94
13709;BME280;54933;51.908;7.730;2022-09-24T08:23:05;100632.38;;;22.51;77.98
13709;BME280;54933;51.908;7.730;2022-09-24T08:25:31;100632.38;;;22.51;77.77
13709;BME280;54933;51.908;7.730;2022-09-24T08:28:04;100630.50;;;22.51;77.95
13709;BME280;54933;51.908;7.730;2022-09-24T08:30:30;100629.69;;;22.51;77.85
13709;BME280;54933;51.908;7.730;2022-09-24T08:32:56;100632.38;;;22.51;77.88
13709;BME280;54933;51.908;7.730;2022-09-24T08:35:22;100638.63;;;22.51;77.94
13709;BME280;54933;51.908;7.730;2022-09-24T08:37:47;100638.63;;;22.51;78.20
13709;BME280;54933;51.908;7.730;2022-09-24T08:40:18;100640.31;;;22.52;77.94
13709;BME280;54933;51.908;7.730;2022-09-24T08:45:49;100641.53;;;22.50;77.85
13709;BME280;54933;51.908;7.730;2022-09-24T08:48:37;100638.63;;;22.51;78.21
13709;BME280;54933;51.908;7.730;2022-09-24T08:51:11;100643.22;;;22.51;77.88
13709;BME280;54933;51.908;7.730;2022-09-24T08:54:05;100649.47;;;22.51;78.29
13709;BME280;54933;51.908;7.730;2022-09-24T08:56:34;100647.78;;;22.50;77.89
13709;BME280;54933;51.908;7.730;2022-09-24T08:59:09;100652.38;;;22.50;77.89
13709;BME280;54933;51.908;7.730;2022-09-24T09:01:55;100648.63;;;22.51;77.68
13709;BME280;54933;51.908;7.730;2022-09-24T09:04:32;100648.63;;;22.51;77.89
13709;BME280;54933;51.908;7.730;2022-09-24T09:07:19;100654.03;;;22.51;78.08
13709;BME280;54933;51.908;7.730;2022-09-24T09:10:08;100647.78;;;22.50;77.91
13709;BME280;54933;51.908;7.730;2022-09-24T09:12:39;100651.34;;;22.51;78.09
13709;BME280;54933;51.908;7.730;2022-09-24T09:15:13;100651.34;;;22.51;78.08
13709;BME280;54933;51.908;7.730;2022-09-24T09:17:46;100647.78;;;22.50;77.79
13709;BME280;54933;51.908;7.730;2022-09-24T09:20:22;100649.66;;;22.50;78.23
13709;BME280;54933;51.908;7.730;2022-09-24T09:22:50;100652.38;;;22.50;78.41
13709;BME280;54933;51.908;7.730;2022-09-24T09:25:22;100651.34;;;22.51;78.13
13709;BME280;54933;51.908;7.730;2022-09-24T09:27:57;100654.03;;;22.51;78.20
13709;BME280;54933;51.908;7.730;2022-09-24T09:30:24;100654.03;;;22.51;78.29
13709;BME280;54933;51.908;7.730;2022-09-24T09:33:01;100651.34;;;22.51;78.27
13709;BME280;54933;51.908;7.730;2022-09-24T09:35:36;100659.47;;;22.51;78.12
13709;BME280;54933;51.908;7.730;2022-09-24T09:38:18;100654.03;;;22.51;78.38
13709;BME280;54933;51.908;7.730;2022-09-24T09:43:18;100659.47;;;22.51;78.39
13709;BME280;54933;51.908;7.730;2022-09-24T09:46:13;100659.25;;;22.52;78.44
13709;BME280;54933;51.908;7.730;2022-09-24T09:48:55;100659.47;;;22.51;78.40
13709;BME280;54933;51.908;7.730;2022-09-24T09:51:25;100659.47;;;22.51;78.59
13709;BME280;54933;51.908;7.730;2022-09-24T09:53:54;100657.78;;;22.50;78.45
13709;BME280;54933;51.908;7.730;2022-09-24T09:56:23;100655.91;;;22.50;78.67
13709;BME280;54933;51.908;7.730;2022-09-24T09:58:50;100659.47;;;22.51;78.65
13709;BME280;54933;51.908;7.730;2022-09-24T10:01:29;100650.50;;;22.50;78.62
13709;BME280;54933;51.908;7.730;2022-09-24T10:03:57;100653.22;;;22.50;78.30
13709;BME280;54933;51.908;7.730;2022-09-24T10:06:24;100657.78;;;22.50;78.52
13709;BME280;54933;51.908;7.730;2022-09-24T10:08:50;100651.56;;;22.49;78.46
13709;BME280;54933;51.908;7.730;2022-09-24T10:11:16;100652.38;;;22.50;78.63
13709;BME280;54933;51.908;7.730;2022-09-24T10:13:41;100657.78;;;22.50;78.64
13709;BME280;54933;51.908;7.730;2022-09-24T10:16:08;100657.78;;;22.50;78.35
13709;BME280;54933;51.908;7.730;2022-09-24T10:18:45;100646.97;;;22.50;78.66
13709;BME280;54933;51.908;7.730;2022-09-24T10:21:14;100659.47;;;22.51;78.65
13709;BME280;54933;51.908;7.730;2022-09-24T10:23:48;100650.50;;;22.50;78.40
13709;BME280;54933;51.908;7.730;2022-09-24T10:26:14;100662.16;;;22.51;78.48
13709;BME280;54933;51.908;7.730;2022-09-24T10:28:44;100655.09;;;22.50;78.36
13709;BME280;54933;51.908;7.730;2022-09-24T10:31:30;100649.66;;;22.50;78.61
13709;BME280;54933;51.908;7.730;2022-09-24T10:34:00;100646.97;;;22.50;78.50
13709;BME280;54933;51.908;7.730;2022-09-24T10:36:27;100653.22;;;22.50;78.40
13709;BME280;54933;51.908;7.730;2022-09-24T10:41:31;100655.09;;;22.50;78.83
13709;BME280;54933;51.908;7.730;2022-09-24T10:44:03;100652.38;;;22.50;78.62
13709;BME280;54933;51.908;7.730;2022-09-24T10:49:29;100653.44;;;22.49;78.77
13709;BME280;54933;51.908;7.730;2022-09-24T10:58:08;100661.56;;;22.49;78.71
13709;BME280;54933;51.908;7.730;2022-09-24T11:00:40;100656.16;;;22.49;78.43
13709;BME280;54933;51.908;7.730;2022-09-24T11:06:16;100665.34;;;22.48;78.64
13709;BME280;54933;51.908;7.730;2022-09-24T11:09:03;100665.34;;;22.48;78.81
13709;BME280;54933;51.908;7.730;2022-09-24T11:17:20;100654.50;;;22.48;78.28
13709;BME280;54933;51.908;7.730;2022-09-24T11:20:13;100654.50;;;22.48;78.71
13709;BME280;54933;51.908;7.730;2022-09-24T11:26:15;100660.72;;;22.48;78.68
13709;BME280;54933;51.908;7.730;2022-09-24T11:29:08;100659.94;;;22.48;78.73
13709;BME280;54933;51.908;7.730;2022-09-24T11:31:49;100659.94;;;22.48;78.91
13709;BME280;54933;51.908;7.730;2022-09-24T11:35:13;100649.09;;;22.48;78.79
13709;BME280;54933;51.908;7.730;2022-09-24T11:43:11;100653.44;;;22.49;78.92
13709;BME280;54933;51.908;7.730;2022-09-24T11:46:05;100646.38;;;22.48;78.98
13709;BME280;54933;51.908;7.730;2022-09-24T12:02:19;100649.09;;;22.48;78.90
13709;BME280;54933;51.908;7.730;2022-09-24T12:04:53;100646.97;;;22.50;78.95
13709;BME280;54933;51.908;7.730;2022-09-24T12:10:42;100646.97;;;22.50;79.03
13709;BME280;54933;51.908;7.730;2022-09-24T12:13:27;100638.25;;;22.48;79.19
13709;BME280;54933;51.908;7.730;2022-09-24T12:15:55;100639.06;;;22.48;79.09
13709;BME280;54933;51.908;7.730;2022-09-24T12:18:40;100639.06;;;22.48;79.00
13709;BME280;54933;51.908;7.730;2022-09-24T12:21:11;100641.78;;;22.48;79.16
13709;BME280;54933;51.908;7.730;2022-09-24T12:23:41;100641.53;;;22.50;78.96
13709;BME280;54933;51.908;7.730;2022-09-24T12:26:09;100639.06;;;22.48;78.94
13709;BME280;54933;51.908;7.730;2022-09-24T12:28:42;100650.75;;;22.49;78.95
13709;BME280;54933;51.908;7.730;2022-09-24T12:31:33;100646.16;;;22.49;79.05
13709;BME280;54933;51.908;7.730;2022-09-24T12:35:01;100649.09;;;22.48;79.22
13709;BME280;54933;51.908;7.730;2022-09-24T12:37:22;100650.75;;;22.49;78.90
13709;BME280;54933;51.908;7.730;2022-09-24T12:39:57;100644.47;;;22.48;79.20
13709;BME280;54933;51.908;7.730;2022-09-24T12:42:28;100650.75;;;22.49;79.24
13709;BME280;54933;51.908;7.730;2022-09-24T12:44:58;100646.38;;;22.48;79.44
13709;BME280;54933;51.908;7.730;2022-09-24T12:47:27;100646.38;;;22.48;79.20
13709;BME280;54933;51.908;7.730;2022-09-24T12:49:55;100643.69;;;22.48;78.92
13709;BME280;54933;51.908;7.730;2022-09-24T12:52:24;100644.47;;;22.48;79.14
13709;BME280;54933;51.908;7.730;2022-09-24T12:55:00;100648.25;;;22.47;79.35
13709;BME280;54933;51.908;7.730;2022-09-24T12:57:32;100651.81;;;22.48;79.43
13709;BME280;54933;51.908;7.730;2022-09-24T13:00:00;100649.09;;;22.48;79.38
13709;BME280;54933;51.908;7.730;2022-09-24T13:02:28;100643.69;;;22.48;79.08
13709;BME280;54933;51.908;7.730;2022-09-24T13:07:34;100641.78;;;22.48;79.29
13709;BME280;54933;51.908;7.730;2022-09-24T13:12:41;100639.06;;;22.48;79.38
13709;BME280;54933;51.908;7.730;2022-09-24T13:15:16;100646.38;;;22.48;79.18
13709;BME280;54933;51.908;7.730;2022-09-24T13:17:46;100644.47;;;22.48;79.00
13709;BME280;54933;51.908;7.730;2022-09-24T13:20:30;100645.56;;;22.47;79.28
13709;BME280;54933;51.908;7.730;2022-09-24T13:26:04;100637.44;;;22.47;79.05
13709;BME280;54933;51.908;7.730;2022-09-24T13:28:51;100638.25;;;22.48;79.30
13709;BME280;54933;51.908;7.730;2022-09-24T13:33:48;100633.88;;;22.47;79.53
13709;BME280;54933;51.908;7.730;2022-09-24T13:39:17;100637.44;;;22.47;79.11
13709;BME280;54933;51.908;7.730;2022-09-24T13:41:58;100631.19;;;22.47;79.11
13709;BME280;54933;51.908;7.730;2022-09-24T13:44:30;100635.78;;;22.46;79.01
13709;BME280;54933;51.908;7.730;2022-09-24T13:47:00;100642.00;;;22.47;79.20
13709;BME280;54933;51.908;7.730;2022-09-24T13:49:28;100636.59;;;22.47;79.23
13709;BME280;54933;51.908;7.730;2022-09-24T13:52:00;100643.91;;;22.46;79.00
13709;BME280;54933;51.908;7.730;2022-09-24T13:54:32;100642.00;;;22.47;79.24
13709;BME280;54933;51.908;7.730;2022-09-24T13:57:25;100634.97;;;22.46;79.17
13709;BME280;54933;51.908;7.730;2022-09-24T14:02:39;100646.63;;;22.46;79.32
13709;BME280;54933;51.908;7.730;2022-09-24T14:05:14;100643.91;;;22.46;79.26
13709;BME280;54933;51.908;7.730;2022-09-24T14:07:40;100646.63;;;22.46;79.23
13709;BME280;54933;51.908;7.730;2022-09-24T14:10:12;100642.84;;;22.47;79.30
13709;BME280;54933;51.908;7.730;2022-09-24T14:12:38;100641.19;;;22.46;79.19
13709;BME280;54933;51.908;7.730;2022-09-24T14:15:13;100642.00;;;22.47;79.24
13709;BME280;54933;51.908;7.730;2022-09-24T14:17:39;100643.69;;;22.48;79.29
13709;BME280;54933;51.908;7.730;2022-09-24T14:20:04;100642.84;;;22.47;79.38
13709;BME280;54933;51.908;7.730;2022-09-24T14:22:35;100640.38;;;22.46;79.25
13709;BME280;54933;51.908;7.730;2022-09-24T14:25:11;100643.69;;;22.48;79.28
13709;BME280;54933;51.908;7.730;2022-09-24T14:27:42;100647.44;;;22.47;79.53
13709;BME280;54933;51.908;7.730;2022-09-24T14:30:18;100642.00;;;22.47;79.62
13709;BME280;54933;51.908;7.730;2022-09-24T14:32:50;100642.84;;;22.47;79.03